Startpagina
METAR-TAF:

METAR-TAF

Vliegvelden :

Nassau, Bahama's

Lynden Pindling International Airport

breedte: 25-03N, lengte: 077-28W, hoogte: 3 m

Actueel weer

Dit bericht is 25 minuten geleden gemaakt, om 10:00 UTC
Wind 3 kt uit het noordoosten
Temperatuur 28°C
Vochtigheid 84%
Druk 1013 hPa
Zicht 10 km of meer
Weinig wolken op 1800 ft

METAR: MYNN 211000Z 04003KT 9999 FEW018 28/25 A2991

Tijdstip: 06:25 (10:25 UTC)

Verwachting

Dit bericht is 6 uur en het 25 minuten geleden gemaakt, om 04:00 UTC
Verwachting geldig van 21 om 06 UTC tot 22 om 06 UTC
Wind kt uit het noorden
Zicht 10 km of meer
Weinig wolken op 2000 ft
Verspreide wolken op 20000 ft
Wijzigt naar
van 21 om 18 UTC tot 21 om 20 UTC
Wind 15 kt uit het oosten

TAF: MYNN 210400Z 2106/2206 00000KT 9999 FEW020 SCT200 BECMG 2118/2120 08015KT

Waarnemingen en weersverwachtingen van meer dan 4000 vliegvelden (METAR en TAF).

De beschikbare stations zijn de gele en rode punten op de kaart.

Ga met uw muis naar het station om de naam te zien.

Klik dan om waarnemingen en weersverwachtingen te zien.

kaart wijzigen: klik op de groene knoppen met een zwart kruis om in te zoomen, op de groene knop met een streepje om uit te zoomen of op de groene pijlen voor aangrenzende kaarten.


METAR-TAF: